| time (UTC) | temp F | wind direction | speed knots | gust knots | rain 1hr in | rain 24hr in | rain mn in | humidity % | barometer mb |
| 20260906082327 | 73 | 170 | 0.0 | 0.0 | 0.00 | 0.00 | 0.00 | 99 | 1012.2 |
| 20260906081823 | 73 | 182 | 0.0 | 0.0 | 0.00 | 0.00 | 0.00 | 99 | 1012.3 |
| 20260906081319 | 73 | 182 | 0.0 | 0.0 | 0.00 | 0.00 | 0.00 | 99 | 1012.2 |
| 20260906080814 | 73 | 182 | 0.0 | 0.0 | 0.00 | 0.00 | 0.00 | 99 | 1012.4 |
| 20260906080311 | 74 | 179 | 0.0 | 0.0 | 0.00 | 0.00 | 0.00 | 99 | 1012.5 |
| 20260906075810 | 74 | 179 | 0.0 | 0.0 | 0.00 | 0.00 | 0.00 | 99 | 1012.6 |
| 20260906075310 | 74 | 180 | 0.0 | 0.0 | 0.00 | 0.00 | 0.00 | 99 | 1012.6 |
| 20260906074805 | 74 | 179 | 0.0 | 0.0 | 0.00 | 0.00 | 0.00 | 99 | 1012.7 |
| 20260906074305 | 74 | 180 | 0.0 | 0.0 | 0.00 | 0.00 | 0.00 | 99 | 1012.5 |
| 20260906073804 | 74 | 179 | 0.0 | 0.0 | 0.00 | 0.00 | 0.00 | 99 | 1012.6 |
| 20260906073259 | 74 | 177 | 0.0 | 0.0 | 0.00 | 0.00 | 0.00 | 99 | 1012.5 |
| 20260906072755 | 74 | 180 | 0.0 | 0.0 | 0.00 | 0.00 | 0.00 | 99 | 1012.3 |
| 20260906072250 | 74 | 179 | 0.0 | 0.0 | 0.00 | 0.00 | 0.00 | 99 | 1012.7 |
| 20260906071746 | 74 | 176 | 0.0 | 0.0 | 0.00 | 0.00 | 0.00 | 99 | 1012.6 |
| 20260906071246 | 74 | 179 | 0.0 | 0.0 | 0.00 | 0.00 | 0.00 | 99 | 1012.5 |
| 20260906070743 | 74 | 180 | 0.0 | 0.0 | 0.00 | 0.00 | 0.00 | 99 | 1012.1 |
| 20260906070238 | 74 | 178 | 0.0 | 0.0 | 0.00 | 0.00 | 0.00 | 99 | 1012.5 |
| 20260906065738 | 74 | 176 | 0.0 | 0.0 | 0.00 | 0.00 | 0.00 | 99 | 1012.3 |
| 20260906065233 | 75 | 180 | 0.0 | 0.0 | 0.00 | 0.00 | 0.00 | 99 | 1012.4 |
| 20260906064728 | 75 | 178 | 0.0 | 0.0 | 0.00 | 0.00 | 0.00 | 99 | 1012.7 |
| 20260906064224 | 75 | 180 | 0.0 | 0.0 | 0.00 | 0.00 | 0.00 | 99 | 1012.5 |
| 20260906063719 | 75 | 179 | 0.0 | 0.0 | 0.00 | 0.00 | 0.00 | 99 | 1012.4 |
| 20260906063215 | 75 | 179 | 0.0 | 0.0 | 0.00 | 0.00 | 0.00 | 99 | 1012.5 |
| 20260906062710 | 75 | 186 | 0.0 | 0.0 | 0.00 | 0.00 | 0.00 | 99 | 1012.6 |
| 20260906062209 | 75 | 176 | 0.0 | 0.0 | 0.00 | 0.00 | 0.00 | 99 | 1012.2 |
| 20260906061705 | 75 | 163 | 0.0 | 0.0 | 0.00 | 0.00 | 0.00 | 99 | 1012.6 |
| 20260906061201 | 75 | 178 | 0.0 | 0.0 | 0.00 | 0.00 | 0.00 | 99 | 1012.5 |
| 20260906060657 | 75 | 181 | 0.0 | 0.0 | 0.00 | 0.00 | 0.00 | 99 | 1012.6 |
| 20260906060154 | 75 | 177 | 0.0 | 0.0 | 0.00 | 0.00 | 0.00 | 99 | 1012.6 |
| 20260906055649 | 75 | 180 | 0.0 | 0.0 | 0.00 | 0.00 | 0.00 | 99 | 1012.6 |
| 20260906055144 | 75 | 178 | 0.0 | 0.0 | 0.00 | 0.00 | 0.00 | 99 | 1012.7 |
| 20260906054639 | 75 | 160 | 0.0 | 0.0 | 0.00 | 0.00 | 0.00 | 99 | 1012.8 |
| 20260906054134 | 75 | 177 | 0.0 | 0.0 | 0.00 | 0.00 | 0.00 | 99 | 1012.6 |
| 20260906053632 | 75 | 175 | 0.9 | 0.9 | 0.00 | 0.00 | 0.00 | 99 | 1012.7 |
| 20260906053131 | 75 | 175 | 0.0 | 0.0 | 0.00 | 0.00 | 0.00 | 99 | 1012.7 |
| 20260906052627 | 76 | 174 | 0.0 | 0.0 | 0.00 | 0.00 | 0.00 | 99 | 1012.6 |
| 20260906052123 | 76 | 178 | 0.0 | 0.0 | 0.00 | 0.00 | 0.00 | 99 | 1012.6 |
| 20260906051619 | 76 | 177 | 0.0 | 0.0 | 0.00 | 0.00 | 0.00 | 99 | 1012.7 |
| 20260906051114 | 76 | 177 | 0.0 | 0.0 | 0.00 | 0.00 | 0.00 | 99 | 1012.6 |
| 20260906050610 | 76 | 177 | 0.0 | 0.0 | 0.00 | 0.00 | 0.00 | 99 | 1012.7 |
| 20260906050105 | 76 | 177 | 0.0 | 0.0 | 0.00 | 0.00 | 0.00 | 99 | 1012.7 |
| 20260906045603 | 77 | 173 | 0.0 | 0.0 | 0.00 | 0.00 | 0.00 | 98 | 1012.6 |
| 20260906045058 | 77 | 173 | 0.0 | 0.0 | 0.00 | 0.00 | 0.00 | 98 | 1012.6 |
| 20260906044555 | 77 | 181 | 0.0 | 0.0 | 0.00 | 0.00 | 0.00 | 98 | 1012.8 |
| 20260906044055 | 77 | 182 | 0.0 | 0.9 | 0.00 | 0.00 | 0.00 | 97 | 1012.8 |
| 20260906043550 | 77 | 178 | 0.0 | 0.0 | 0.00 | 0.00 | 0.00 | 98 | 1013.0 |
| 20260906043047 | 77 | 177 | 0.0 | 0.0 | 0.00 | 0.00 | 0.00 | 98 | 1012.8 |
| 20260906042545 | 77 | 165 | 0.9 | 0.9 | 0.00 | 0.00 | 0.00 | 98 | 1012.8 |
| 20260906042040 | 77 | 160 | 0.9 | 0.9 | 0.00 | 0.00 | 0.00 | 97 | 1013.0 |
| 20260906041537 | 77 | 175 | 0.0 | 0.0 | 0.00 | 0.00 | 0.00 | 97 | 1012.8 |
| 20260906041037 | 77 | 178 | 0.0 | 0.0 | 0.00 | 0.00 | 0.00 | 96 | 1013.0 |
| 20260906040532 | 77 | 170 | 0.0 | 0.9 | 0.00 | 0.00 | 0.00 | 96 | 1012.8 |
| 20260906040027 | 78 | 166 | 0.0 | 0.0 | 0.00 | 0.00 | 0.00 | 95 | 1012.7 |
| 20260906035522 | 78 | 182 | 0.0 | 0.0 | 0.00 | 0.00 | 0.00 | 94 | 1013.0 |
| 20260906035019 | 79 | 182 | 0.0 | 0.0 | 0.00 | 0.00 | 0.00 | 94 | 1013.0 |
| 20260906034518 | 79 | 181 | 0.0 | 0.0 | 0.00 | 0.00 | 0.00 | 93 | 1013.0 |
| 20260906034013 | 79 | 181 | 0.0 | 0.0 | 0.00 | 0.00 | 0.00 | 93 | 1012.9 |
| 20260906033508 | 80 | 180 | 0.0 | 0.0 | 0.00 | 0.00 | 0.00 | 92 | 1012.9 |
| 20260906033004 | 80 | 185 | 0.0 | 0.9 | 0.00 | 0.00 | 0.00 | 92 | 1012.8 |
| 20260906032501 | 80 | 191 | 0.0 | 0.0 | 0.00 | 0.00 | 0.00 | 92 | 1012.7 |
| 20260906032000 | 80 | 183 | 0.0 | 0.0 | 0.00 | 0.00 | 0.00 | 91 | 1012.7 |
| 20260906031456 | 80 | 187 | 0.0 | 0.0 | 0.00 | 0.00 | 0.00 | 90 | 1012.5 |
| 20260906030951 | 80 | 185 | 0.0 | 0.0 | 0.00 | 0.00 | 0.00 | 90 | 1012.6 |
| 20260906030445 | 80 | 184 | 0.0 | 0.0 | 0.00 | 0.00 | 0.00 | 92 | 1012.9 |
| 20260906025940 | 80 | 179 | 0.0 | 0.0 | 0.00 | 0.00 | 0.00 | 91 | 1012.9 |
| 20260906025439 | 80 | 183 | 0.0 | 0.0 | 0.00 | 0.00 | 0.00 | 91 | 1012.7 |
| 20260906024938 | 80 | 167 | 0.0 | 0.0 | 0.00 | 0.00 | 0.00 | 90 | 1012.6 |
| 20260906024439 | 80 | 181 | 0.0 | 0.0 | 0.00 | 0.00 | 0.00 | 89 | 1012.7 |
| 20260906023938 | 81 | 190 | 0.9 | 0.9 | 0.00 | 0.00 | 0.00 | 89 | 1012.6 |
| 20260906023435 | 81 | 179 | 0.9 | 0.9 | 0.00 | 0.00 | 0.00 | 89 | 1012.8 |
| 20260906022935 | 81 | 179 | 0.0 | 0.0 | 0.00 | 0.00 | 0.00 | 89 | 1012.7 |
| 20260906022431 | 82 | 162 | 0.0 | 0.0 | 0.00 | 0.00 | 0.00 | 88 | 1012.6 |
| 20260906021926 | 82 | 180 | 0.0 | 0.0 | 0.00 | 0.00 | 0.00 | 86 | 1012.4 |
| 20260906021426 | 82 | 178 | 0.0 | 0.9 | 0.00 | 0.00 | 0.00 | 85 | 1012.4 |
| 20260906020926 | 83 | 185 | 0.0 | 0.0 | 0.00 | 0.00 | 0.00 | 85 | 1012.6 |
| 20260906020420 | 83 | 178 | 0.9 | 1.7 | 0.00 | 0.00 | 0.00 | 84 | 1012.4 |
| 20260906015915 | 83 | 189 | 1.7 | 1.7 | 0.00 | 0.00 | 0.00 | 84 | 1012.3 |
| 20260906015415 | 83 | 165 | 1.7 | 2.6 | 0.00 | 0.00 | 0.00 | 84 | 1012.4 |
| 20260906014915 | 83 | 182 | 0.0 | 0.0 | 0.00 | 0.00 | 0.00 | 83 | 1012.1 |
| 20260906014414 | 83 | 189 | 1.7 | 1.7 | 0.00 | 0.00 | 0.00 | 83 | 1012.1 |
| 20260906013911 | 83 | 195 | 0.0 | 0.9 | 0.00 | 0.00 | 0.00 | 82 | 1012.0 |
| 20260906013406 | 83 | 178 | 0.0 | 0.0 | 0.00 | 0.00 | 0.00 | 82 | 1011.9 |
| 20260906012902 | 83 | 176 | 0.0 | 0.0 | 0.00 | 0.00 | 0.00 | 82 | 1012.0 |
| 20260906012402 | 84 | 182 | 0.0 | 0.0 | 0.00 | 0.00 | 0.00 | 81 | 1011.7 |
| 20260906011901 | 84 | 178 | 0.0 | 0.0 | 0.00 | 0.00 | 0.00 | 80 | 1011.7 |
| 20260906011356 | 84 | 187 | 0.0 | 0.0 | 0.00 | 0.00 | 0.00 | 80 | 1011.7 |
| 20260906010852 | 84 | 181 | 0.0 | 0.0 | 0.00 | 0.00 | 0.00 | 79 | 1011.7 |
| 20260906010348 | 85 | 181 | 0.0 | 0.0 | 0.00 | 0.00 | 0.00 | 78 | 1011.6 |
| 20260906005844 | 85 | 186 | 0.9 | 0.9 | 0.00 | 0.00 | 0.00 | 77 | 1011.7 |
| 20260906005343 | 85 | 198 | 0.9 | 1.7 | 0.00 | 0.00 | 0.00 | 76 | 1011.5 |
| 20260906004842 | 86 | 199 | 2.6 | 4.3 | 0.00 | 0.00 | 0.00 | 75 | 1011.6 |
| 20260906004341 | 86 | 183 | 1.7 | 1.7 | 0.00 | 0.00 | 0.00 | 75 | 1011.6 |
| 20260906003837 | 86 | 200 | 2.6 | 2.6 | 0.00 | 0.00 | 0.00 | 74 | 1011.5 |
| 20260906003332 | 86 | 196 | 3.5 | 5.2 | 0.00 | 0.00 | 0.00 | 73 | 1011.6 |
| 20260906002827 | 87 | 225 | 2.6 | 4.3 | 0.00 | 0.00 | 0.00 | 72 | 1011.7 |
| 20260906002326 | 87 | 179 | 0.9 | 1.7 | 0.00 | 0.00 | 0.00 | 72 | 1011.7 |
| 20260906001822 | 87 | 218 | 4.3 | 4.3 | 0.00 | 0.00 | 0.00 | 71 | 1011.6 |
| 20260906001318 | 88 | 215 | 2.6 | 2.6 | 0.00 | 0.00 | 0.00 | 70 | 1011.4 |
| 20260906000813 | 88 | 221 | 3.5 | 4.3 | 0.00 | 0.00 | 0.00 | 70 | 1011.6 |
| 20260906000307 | 88 | 198 | 2.6 | 2.6 | 0.00 | 0.00 | 0.00 | 69 | 1011.6 |
| 20260905235802 | 89 | 210 | 1.7 | 2.6 | 0.00 | 0.00 | 0.00 | 69 | 1011.3 |
| 20260905235306 | 89 | 189 | 1.7 | 1.7 | 0.00 | 0.00 | 0.00 | 68 | 1011.5 |
| 20260905234758 | 90 | 194 | 2.6 | 2.6 | 0.00 | 0.00 | 0.00 | 67 | 1011.4 |
| 20260905234252 | 90 | 166 | 2.6 | 2.6 | 0.00 | 0.00 | 0.00 | 66 | 1011.3 |
| 20260905233748 | 90 | 190 | 0.9 | 1.7 | 0.00 | 0.00 | 0.00 | 66 | 1011.3 |
| 20260905233247 | 91 | 187 | 3.5 | 4.3 | 0.00 | 0.00 | 0.00 | 65 | 1011.3 |
| 20260905232747 | 91 | 153 | 4.3 | 6.1 | 0.00 | 0.00 | 0.00 | 65 | 1011.3 |
| 20260905232243 | 91 | 201 | 4.3 | 5.2 | 0.00 | 0.00 | 0.00 | 64 | 1011.2 |
| 20260905231739 | 92 | 198 | 4.3 | 6.1 | 0.00 | 0.00 | 0.00 | 64 | 1011.2 |
| 20260905231234 | 92 | 177 | 4.3 | 6.1 | 0.00 | 0.00 | 0.00 | 63 | 1010.9 |
| 20260905230730 | 93 | 203 | 3.5 | 4.3 | 0.00 | 0.00 | 0.00 | 62 | 1010.9 |
| 20260905230227 | 93 | 174 | 4.3 | 6.1 | 0.00 | 0.00 | 0.00 | 61 | 1011.0 |
| 20260905225727 | 94 | 209 | 7.8 | 8.7 | 0.00 | 0.00 | 0.00 | 60 | 1010.8 |
| 20260905225223 | 94 | 190 | 3.5 | 5.2 | 0.00 | 0.00 | 0.00 | 60 | 1011.1 |
| 20260905224722 | 95 | 223 | 2.6 | 4.3 | 0.00 | 0.00 | 0.00 | 58 | 1011.0 |
| 20260905224217 | 96 | 209 | 0.9 | 0.9 | 0.00 | 0.00 | 0.00 | 55 | 1010.8 |
| 20260905223713 | 98 | 236 | 2.6 | 4.3 | 0.00 | 0.00 | 0.00 | 54 | 1011.0 |
| 20260905223210 | 99 | 197 | 0.9 | 1.7 | 0.00 | 0.00 | 0.00 | 45 | 1010.7 |
| 20260905222705 | 100 | 186 | 0.9 | 0.9 | 0.00 | 0.00 | 0.00 | 43 | 1010.9 |
| 20260905222205 | 99 | 189 | 0.0 | 0.0 | 0.00 | 0.00 | 0.00 | 43 | 1010.7 |
| 20260905221700 | 100 | 184 | 0.0 | 0.0 | 0.00 | 0.00 | 0.00 | 43 | 1010.8 |
| 20260905221157 | 99 | 172 | 0.0 | 0.0 | 0.00 | 0.00 | 0.00 | 44 | 1010.7 |
| 20260905220652 | 100 | 206 | 2.6 | 2.6 | 0.00 | 0.00 | 0.00 | 42 | 1010.6 |
| 20260905220149 | 100 | 191 | 0.0 | 0.0 | 0.00 | 0.00 | 0.00 | 42 | 1010.7 |
| 20260905215648 | 100 | 181 | 0.0 | 0.9 | 0.00 | 0.00 | 0.00 | 44 | 1010.9 |
| 20260905215144 | 100 | 198 | 0.9 | 0.9 | 0.00 | 0.00 | 0.00 | 42 | 1011.0 |
| 20260905214640 | 100 | 200 | 0.9 | 0.9 | 0.00 | 0.00 | 0.00 | 42 | 1010.9 |
| 20260905214141 | 101 | 193 | 0.0 | 0.0 | 0.00 | 0.00 | 0.00 | 43 | 1010.9 |
| 20260905213636 | 100 | 201 | 0.0 | 0.9 | 0.00 | 0.00 | 0.00 | 45 | 1011.0 |
| 20260905213131 | 102 | 43 | 0.9 | 1.7 | 0.00 | 0.00 | 0.00 | 41 | 1011.3 |
| 20260905212626 | 101 | 209 | 0.0 | 0.0 | 0.00 | 0.00 | 0.00 | 41 | 1011.2 |
| 20260905212127 | 102 | 212 | 0.0 | 0.0 | 0.00 | 0.00 | 0.00 | 41 | 1011.2 |
| 20260905211627 | 102 | 197 | 0.9 | 1.7 | 0.00 | 0.00 | 0.00 | 42 | 1011.2 |
| 20260905211122 | 102 | 230 | 0.0 | 0.0 | 0.00 | 0.00 | 0.00 | 42 | 1011.2 |
| 20260905210619 | 102 | 198 | 3.5 | 4.3 | 0.00 | 0.00 | 0.00 | 41 | 1011.1 |
| 20260905210113 | 103 | 167 | 0.9 | 1.7 | 0.00 | 0.00 | 0.00 | 40 | 1011.3 |
| 20260905205612 | 100 | 295 | 1.7 | 1.7 | 0.00 | 0.00 | 0.00 | 41 | 1011.3 |
| 20260905205112 | 100 | 207 | 2.6 | 4.3 | 0.00 | 0.00 | 0.00 | 41 | 1011.3 |
| 20260905204612 | 99 | 239 | 1.7 | 1.7 | 0.00 | 0.00 | 0.00 | 43 | 1011.5 |
| 20260905204108 | 100 | 177 | 0.9 | 0.9 | 0.00 | 0.00 | 0.00 | 42 | 1011.5 |
| 20260905203608 | 101 | 196 | 0.0 | 0.0 | 0.00 | 0.00 | 0.00 | 41 | 1011.6 |
| 20260905203103 | 102 | 66 | 0.9 | 1.7 | 0.00 | 0.00 | 0.00 | 41 | 1011.7 |
| 20260905202558 | 101 | 203 | 0.9 | 1.7 | 0.00 | 0.00 | 0.00 | 41 | 1011.6 |
| 20260905202053 | 101 | 216 | 0.0 | 0.9 | 0.00 | 0.00 | 0.00 | 40 | 1011.7 |
| 20260905201549 | 99 | 127 | 2.6 | 4.3 | 0.00 | 0.00 | 0.00 | 43 | 1011.5 |
| 20260905201048 | 99 | 337 | 1.7 | 1.7 | 0.00 | 0.00 | 0.00 | 45 | 1011.7 |
| 20260905200544 | 100 | 224 | 2.6 | 2.6 | 0.00 | 0.00 | 0.00 | 43 | 1011.7 |
| 20260905200044 | 102 | 0 | 3.5 | 4.3 | 0.00 | 0.00 | 0.00 | 43 | 1011.9 |
| 20260905195538 | 101 | 337 | 3.5 | 4.3 | 0.00 | 0.00 | 0.00 | 42 | 1011.8 |
| 20260905195033 | 103 | 204 | 0.9 | 1.7 | 0.00 | 0.00 | 0.00 | 42 | 1011.8 |
| 20260905194533 | 104 | 190 | 0.9 | 1.7 | 0.00 | 0.00 | 0.00 | 39 | 1011.8 |
| 20260905194032 | 101 | 144 | 0.0 | 0.9 | 0.00 | 0.00 | 0.00 | 43 | 1011.8 |
| 20260905193527 | 101 | 201 | 0.0 | 0.9 | 0.00 | 0.00 | 0.00 | 42 | 1011.9 |
| 20260905193023 | 102 | 287 | 2.6 | 2.6 | 0.00 | 0.00 | 0.00 | 41 | 1012.1 |
| 20260905192518 | 99 | 166 | 0.0 | 0.9 | 0.00 | 0.00 | 0.00 | 45 | 1011.9 |
| 20260905192014 | 98 | 179 | 2.6 | 4.3 | 0.00 | 0.00 | 0.00 | 47 | 1012.0 |
| 20260905191513 | 99 | 334 | 5.2 | 7.0 | 0.00 | 0.00 | 0.00 | 46 | 1012.3 |
| 20260905191012 | 99 | 4 | 3.5 | 6.1 | 0.00 | 0.00 | 0.00 | 47 | 1012.4 |
| 20260905190510 | 100 | 195 | 1.7 | 1.7 | 0.00 | 0.00 | 0.00 | 45 | 1012.5 |
| 20260905190010 | 96 | 148 | 0.9 | 0.9 | 0.00 | 0.00 | 0.00 | 52 | 1012.6 |
| 20260905185504 | 97 | 209 | 1.7 | 1.7 | 0.00 | 0.00 | 0.00 | 49 | 1012.7 |
| 20260905185003 | 98 | 194 | 0.9 | 0.9 | 0.00 | 0.00 | 0.00 | 48 | 1012.5 |
| 20260905184458 | 99 | 225 | 2.6 | 2.6 | 0.00 | 0.00 | 0.00 | 47 | 1012.7 |
| 20260905183957 | 97 | 167 | 0.9 | 0.9 | 0.00 | 0.00 | 0.00 | 51 | 1012.9 |
| 20260905183456 | 99 | 319 | 4.3 | 5.2 | 0.00 | 0.00 | 0.00 | 49 | 1012.9 |
| 20260905182951 | 101 | 182 | 0.0 | 0.9 | 0.00 | 0.00 | 0.00 | 47 | 1013.0 |
| 20260905182451 | 101 | 200 | 3.5 | 4.3 | 0.00 | 0.00 | 0.00 | 49 | 1013.0 |
| 20260905181946 | 100 | 143 | 0.9 | 2.6 | 0.00 | 0.00 | 0.00 | 48 | 1013.1 |
| 20260905181447 | 97 | 175 | 0.0 | 0.0 | 0.00 | 0.00 | 0.00 | 50 | 1013.2 |
| 20260905180946 | 98 | 313 | 2.6 | 4.3 | 0.00 | 0.00 | 0.00 | 50 | 1013.1 |
| 20260905180441 | 98 | 5 | 3.5 | 4.3 | 0.00 | 0.00 | 0.00 | 48 | 1013.3 |
| 20260905175936 | 100 | 148 | 2.6 | 2.6 | 0.00 | 0.00 | 0.00 | 47 | 1013.5 |
| 20260905175435 | 101 | 167 | 0.9 | 1.7 | 0.00 | 0.00 | 0.00 | 44 | 1013.3 |
| 20260905174931 | 98 | 80 | 0.9 | 1.7 | 0.00 | 0.00 | 0.00 | 47 | 1013.5 |
| 20260905174426 | 99 | 158 | 0.9 | 1.7 | 0.00 | 0.00 | 0.00 | 48 | 1013.7 |
| 20260905173922 | 99 | 297 | 2.6 | 2.6 | 0.00 | 0.00 | 0.00 | 47 | 1013.8 |
| 20260905173418 | 96 | 186 | 2.6 | 4.3 | 0.00 | 0.00 | 0.00 | 49 | 1014.0 |
| 20260905172919 | 95 | 119 | 2.6 | 2.6 | 0.00 | 0.00 | 0.00 | 51 | 1014.0 |
| 20260905172416 | 95 | 55 | 1.7 | 1.7 | 0.00 | 0.00 | 0.00 | 53 | 1013.9 |
| 20260905171912 | 95 | 199 | 0.9 | 1.7 | 0.00 | 0.00 | 0.00 | 54 | 1014.0 |
| 20260905171409 | 95 | 14 | 3.5 | 4.3 | 0.00 | 0.00 | 0.00 | 56 | 1014.2 |
| 20260905170905 | 96 | 207 | 1.7 | 1.7 | 0.00 | 0.00 | 0.00 | 55 | 1013.9 |
| 20260905170401 | 98 | 316 | 2.6 | 2.6 | 0.00 | 0.00 | 0.00 | 53 | 1013.9 |
| 20260905165900 | 96 | 188 | 0.0 | 0.9 | 0.00 | 0.00 | 0.00 | 54 | 1014.2 |
| 20260905165356 | 95 | 153 | 0.0 | 0.0 | 0.00 | 0.00 | 0.00 | 55 | 1014.2 |
| 20260905164856 | 95 | 151 | 1.7 | 1.7 | 0.00 | 0.00 | 0.00 | 58 | 1014.4 |
| 20260905164351 | 95 | 184 | 0.9 | 1.7 | 0.00 | 0.00 | 0.00 | 57 | 1014.3 |
| 20260905163846 | 95 | 180 | 0.9 | 1.7 | 0.00 | 0.00 | 0.00 | 57 | 1014.2 |
| 20260905163342 | 96 | 177 | 0.0 | 0.0 | 0.00 | 0.00 | 0.00 | 55 | 1014.2 |
| 20260905162838 | 96 | 45 | 3.5 | 5.2 | 0.00 | 0.00 | 0.00 | 56 | 1014.3 |
| 20260905162338 | 95 | 177 | 0.9 | 0.9 | 0.00 | 0.00 | 0.00 | 57 | 1014.3 |
| 20260905161833 | 94 | 146 | 0.0 | 0.9 | 0.00 | 0.00 | 0.00 | 58 | 1014.5 |
| 20260905161332 | 94 | 76 | 1.7 | 2.6 | 0.00 | 0.00 | 0.00 | 59 | 1014.4 |
| 20260905160830 | 94 | 20 | 3.5 | 5.2 | 0.00 | 0.00 | 0.00 | 59 | 1014.5 |
| 20260905160325 | 95 | 218 | 1.7 | 1.7 | 0.00 | 0.00 | 0.00 | 60 | 1014.5 |
| 20260905155819 | 95 | 154 | 1.7 | 1.7 | 0.00 | 0.00 | 0.00 | 60 | 1014.7 |
| 20260905155318 | 94 | 208 | 0.9 | 0.9 | 0.00 | 0.00 | 0.00 | 63 | 1014.6 |
| 20260905154813 | 94 | 196 | 0.0 | 0.9 | 0.00 | 0.00 | 0.00 | 63 | 1014.6 |
| 20260905154308 | 94 | 194 | 0.9 | 0.9 | 0.00 | 0.00 | 0.00 | 62 | 1014.7 |
| 20260905153804 | 93 | 172 | 0.0 | 0.0 | 0.00 | 0.00 | 0.00 | 65 | 1014.7 |
| 20260905153301 | 93 | 346 | 2.6 | 2.6 | 0.00 | 0.00 | 0.00 | 67 | 1014.7 |
| 20260905152800 | 92 | 216 | 1.7 | 1.7 | 0.00 | 0.00 | 0.00 | 67 | 1014.7 |
| 20260905152259 | 90 | 179 | 0.9 | 1.7 | 0.00 | 0.00 | 0.00 | 70 | 1014.9 |
| 20260905151754 | 91 | 297 | 2.6 | 2.6 | 0.00 | 0.00 | 0.00 | 69 | 1014.9 |
| 20260905151250 | 91 | 182 | 0.0 | 0.0 | 0.00 | 0.00 | 0.00 | 70 | 1015.0 |
| 20260905150750 | 91 | 169 | 0.0 | 0.0 | 0.00 | 0.00 | 0.00 | 71 | 1014.9 |
| 20260905150249 | 89 | 168 | 0.0 | 0.0 | 0.00 | 0.00 | 0.00 | 72 | 1014.7 |
| 20260905145747 | 89 | 174 | 0.9 | 1.7 | 0.00 | 0.00 | 0.00 | 75 | 1014.8 |
| 20260905145242 | 89 | 166 | 0.9 | 0.9 | 0.00 | 0.00 | 0.00 | 75 | 1014.8 |
| 20260905144740 | 87 | 168 | 0.9 | 0.9 | 0.00 | 0.00 | 0.00 | 80 | 1014.9 |
| 20260905144236 | 86 | 83 | 1.7 | 1.7 | 0.00 | 0.00 | 0.00 | 80 | 1014.7 |
| 20260905143735 | 86 | 180 | 0.9 | 0.9 | 0.00 | 0.00 | 0.00 | 81 | 1015.0 |
| 20260905143234 | 85 | 174 | 0.0 | 0.9 | 0.00 | 0.00 | 0.00 | 82 | 1014.8 |
| 20260905142733 | 84 | 147 | 0.9 | 1.7 | 0.00 | 0.00 | 0.00 | 84 | 1015.0 |
| 20260905142228 | 84 | 79 | 0.9 | 0.9 | 0.00 | 0.00 | 0.00 | 85 | 1015.1 |
| 20260905141724 | 83 | 166 | 0.0 | 0.9 | 0.00 | 0.00 | 0.00 | 87 | 1014.9 |
| 20260905141220 | 83 | 187 | 0.9 | 0.9 | 0.00 | 0.00 | 0.00 | 88 | 1014.8 |
| 20260905140715 | 82 | 177 | 0.9 | 0.9 | 0.00 | 0.00 | 0.00 | 89 | 1014.8 |
| 20260905140209 | 81 | 176 | 0.0 | 0.0 | 0.00 | 0.00 | 0.00 | 90 | 1015.0 |
| 20260905135703 | 81 | 159 | 0.0 | 0.0 | 0.00 | 0.00 | 0.00 | 92 | 1014.8 |
| 20260905135200 | 80 | 151 | 0.0 | 0.9 | 0.00 | 0.00 | 0.00 | 94 | 1014.8 |
| 20260905134659 | 79 | 182 | 0.9 | 0.9 | 0.00 | 0.00 | 0.00 | 96 | 1014.9 |
| 20260905134158 | 78 | 165 | 0.9 | 0.9 | 0.00 | 0.00 | 0.00 | 99 | 1015.0 |
| 20260905133653 | 77 | 184 | 0.0 | 0.0 | 0.00 | 0.00 | 0.00 | 99 | 1015.1 |
| 20260905133153 | 77 | 168 | 0.0 | 0.0 | 0.00 | 0.00 | 0.00 | 99 | 1014.8 |
| 20260905132647 | 76 | 181 | 0.0 | 0.0 | 0.00 | 0.00 | 0.00 | 99 | 1014.9 |
| 20260905132143 | 75 | 190 | 0.0 | 0.0 | 0.00 | 0.00 | 0.00 | 99 | 1014.8 |
| 20260905131638 | 75 | 184 | 0.0 | 0.0 | 0.00 | 0.00 | 0.00 | 99 | 1015.3 |
| 20260905131138 | 75 | 190 | 0.0 | 0.0 | 0.00 | 0.00 | 0.00 | 99 | 1014.9 |
| 20260905130633 | 74 | 186 | 0.0 | 0.0 | 0.00 | 0.00 | 0.00 | 99 | 1014.8 |
| 20260905130133 | 73 | 190 | 0.0 | 0.0 | 0.00 | 0.00 | 0.00 | 99 | 1014.8 |
| 20260905125632 | 73 | 185 | 0.0 | 0.0 | 0.00 | 0.00 | 0.00 | 99 | 1015.0 |
| 20260905125128 | 73 | 183 | 0.0 | 0.0 | 0.00 | 0.00 | 0.00 | 99 | 1014.9 |
| 20260905124624 | 72 | 182 | 0.0 | 0.0 | 0.00 | 0.00 | 0.00 | 99 | 1015.1 |
| 20260905124120 | 72 | 185 | 0.0 | 0.0 | 0.00 | 0.00 | 0.00 | 99 | 1015.2 |
| 20260905123615 | 71 | 185 | 0.0 | 0.0 | 0.00 | 0.00 | 0.00 | 99 | 1015.0 |
| 20260905123113 | 71 | 185 | 0.0 | 0.0 | 0.00 | 0.00 | 0.00 | 99 | 1015.1 |
| 20260905122607 | 71 | 182 | 0.0 | 0.0 | 0.00 | 0.00 | 0.00 | 99 | 1015.0 |
| 20260905122107 | 71 | 183 | 0.0 | 0.0 | 0.00 | 0.00 | 0.00 | 99 | 1014.8 |
| 20260905121601 | 71 | 183 | 0.0 | 0.0 | 0.00 | 0.00 | 0.00 | 99 | 1014.8 |
| 20260905121056 | 71 | 181 | 0.0 | 0.0 | 0.00 | 0.00 | 0.00 | 99 | 1014.8 |
| 20260905120555 | 70 | 183 | 0.0 | 0.0 | 0.00 | 0.00 | 0.00 | 99 | 1014.6 |
| 20260905120051 | 71 | 184 | 0.0 | 0.0 | 0.00 | 0.00 | 0.00 | 99 | 1014.9 |
| 20260905115549 | 70 | 185 | 0.0 | 0.0 | 0.00 | 0.00 | 0.00 | 99 | 1014.7 |
| 20260905115044 | 70 | 182 | 0.0 | 0.0 | 0.00 | 0.00 | 0.00 | 99 | 1014.7 |
| 20260905114544 | 70 | 184 | 0.0 | 0.0 | 0.00 | 0.00 | 0.00 | 99 | 1014.5 |
| 20260905114043 | 70 | 179 | 0.0 | 0.0 | 0.00 | 0.00 | 0.00 | 99 | 1014.5 |
| 20260905113538 | 70 | 186 | 0.0 | 0.0 | 0.00 | 0.00 | 0.00 | 99 | 1014.5 |
| 20260905113033 | 70 | 188 | 0.0 | 0.0 | 0.00 | 0.00 | 0.00 | 99 | 1014.3 |
| 20260905112528 | 70 | 185 | 0.0 | 0.0 | 0.00 | 0.00 | 0.00 | 99 | 1014.5 |
| 20260905112024 | 71 | 184 | 0.0 | 0.0 | 0.00 | 0.00 | 0.00 | 99 | 1014.4 |
| 20260905111519 | 71 | 187 | 0.0 | 0.0 | 0.00 | 0.00 | 0.00 | 99 | 1014.4 |
| 20260905111018 | 70 | 185 | 0.0 | 0.0 | 0.00 | 0.00 | 0.00 | 99 | 1014.5 |
| 20260905110517 | 71 | 184 | 0.0 | 0.0 | 0.00 | 0.00 | 0.00 | 99 | 1014.3 |
| 20260905110013 | 71 | 184 | 0.0 | 0.0 | 0.00 | 0.00 | 0.00 | 99 | 1014.2 |
| 20260905105507 | 71 | 185 | 0.0 | 0.0 | 0.00 | 0.00 | 0.00 | 99 | 1014.1 |
| 20260905105001 | 71 | 184 | 0.0 | 0.0 | 0.00 | 0.00 | 0.00 | 99 | 1014.4 |
| 20260905104457 | 71 | 184 | 0.0 | 0.0 | 0.00 | 0.00 | 0.00 | 99 | 1014.2 |
| 20260905103956 | 71 | 176 | 0.0 | 0.0 | 0.00 | 0.00 | 0.00 | 99 | 1014.2 |
| 20260905103452 | 71 | 187 | 0.0 | 0.0 | 0.00 | 0.00 | 0.00 | 99 | 1014.2 |
| 20260905102948 | 71 | 186 | 0.0 | 0.0 | 0.00 | 0.00 | 0.00 | 99 | 1014.1 |
| 20260905102444 | 71 | 184 | 0.0 | 0.0 | 0.00 | 0.00 | 0.00 | 99 | 1014.2 |
| 20260905101939 | 71 | 183 | 0.0 | 0.0 | 0.00 | 0.00 | 0.00 | 99 | 1014.1 |
| 20260905101438 | 71 | 184 | 0.0 | 0.0 | 0.00 | 0.00 | 0.00 | 99 | 1014.1 |
| 20260905100937 | 71 | 183 | 0.0 | 0.0 | 0.00 | 0.00 | 0.00 | 99 | 1014.0 |
| 20260905100433 | 71 | 184 | 0.0 | 0.0 | 0.00 | 0.00 | 0.00 | 99 | 1014.3 |
| 20260905095932 | 71 | 184 | 0.0 | 0.0 | 0.00 | 0.00 | 0.00 | 99 | 1014.2 |
| 20260905095432 | 71 | 183 | 0.0 | 0.0 | 0.00 | 0.00 | 0.00 | 99 | 1014.3 |
| 20260905094933 | 71 | 183 | 0.0 | 0.0 | 0.00 | 0.00 | 0.00 | 99 | 1014.1 |
| 20260905094429 | 71 | 184 | 0.0 | 0.0 | 0.00 | 0.00 | 0.00 | 99 | 1013.9 |
| 20260905093927 | 71 | 179 | 0.0 | 0.0 | 0.00 | 0.00 | 0.00 | 99 | 1014.1 |
| 20260905093423 | 71 | 182 | 0.0 | 0.0 | 0.00 | 0.00 | 0.00 | 99 | 1014.3 |
| 20260905092918 | 71 | 184 | 0.0 | 0.0 | 0.00 | 0.00 | 0.00 | 99 | 1013.9 |
| 20260905092413 | 71 | 184 | 0.0 | 0.0 | 0.00 | 0.00 | 0.00 | 99 | 1013.9 |
| 20260905091909 | 71 | 182 | 0.0 | 0.0 | 0.00 | 0.00 | 0.00 | 99 | 1014.0 |
| 20260905091408 | 71 | 183 | 0.0 | 0.0 | 0.00 | 0.00 | 0.00 | 99 | 1013.9 |
| 20260905090908 | 71 | 185 | 0.0 | 0.0 | 0.00 | 0.00 | 0.00 | 99 | 1013.8 |
| 20260905090403 | 71 | 171 | 0.0 | 0.0 | 0.00 | 0.00 | 0.00 | 99 | 1013.8 |
| 20260905085902 | 71 | 192 | 0.0 | 0.0 | 0.00 | 0.00 | 0.00 | 99 | 1014.0 |
| 20260905085402 | 72 | 186 | 0.0 | 0.0 | 0.00 | 0.00 | 0.00 | 99 | 1013.7 |
| 20260905084859 | 72 | 183 | 0.0 | 0.0 | 0.00 | 0.00 | 0.00 | 99 | 1013.8 |
| 20260905084357 | 72 | 181 | 0.0 | 0.0 | 0.00 | 0.00 | 0.00 | 99 | 1013.7 |
| 20260905083852 | 72 | 185 | 0.0 | 0.0 | 0.00 | 0.00 | 0.00 | 99 | 1013.7 |
| 20260905083348 | 72 | 187 | 0.0 | 0.0 | 0.00 | 0.00 | 0.00 | 99 | 1014.0 |
| 20260905082843 | 72 | 171 | 0.0 | 0.0 | 0.00 | 0.00 | 0.00 | 99 | 1014.0 |